Time;durP1;ratioP1;P1;durP2;ratioP2;P2;SDS_P1;SDS_P2;PMS_P1;PMS_P2;Temp;Humidity;BMP_temperature;BMP_pressure;BME280_temperature;BME280_humidity;BME280_pressure;Samples;Min_cycle;Max_cycle;Signal;HPM_P1;HPM_P2
2022/10/23 00:00:41;;;;;;;16.33;5.90;;;;;;;;;;4939502;29;20051;-69
2022/10/23 00:03:09;;;;;;;15.57;5.55;;;;;;;;;;4938007;28;20043;-69
2022/10/23 00:05:40;;;;;;;18.55;5.55;;;;;;;;;;4923312;29;20557;-69
2022/10/23 00:08:07;;;;;;;15.88;6.28;;;;;;;;;;4923861;29;20139;-69
2022/10/23 00:10:35;;;;;;;18.15;6.38;;;;;;;;;;4944155;29;20509;-70
2022/10/23 00:13:02;;;;;;;14.52;5.85;;;;;;;;;;4941110;29;21006;-69
2022/10/23 00:15:29;;;;;;;25.02;6.05;;;;;;;;;;4943719;29;20052;-69
2022/10/23 00:17:58;;;;;;;16.85;6.65;;;;;;;;;;4928222;29;20063;-69
2022/10/23 00:20:25;;;;;;;15.23;6.05;;;;;;;;;;4944150;29;20605;-69
2022/10/23 00:22:53;;;;;;;15.48;6.32;;;;;;;;;;4904257;29;20139;-69
2022/10/23 00:25:20;;;;;;;16.33;6.95;;;;;;;;;;4943573;28;20054;-69
2022/10/23 00:27:47;;;;;;;16.05;6.43;;;;;;;;;;4942434;29;20059;-69
2022/10/23 00:30:14;;;;;;;16.58;6.55;;;;;;;;;;4923747;29;20066;-69
2022/10/23 00:32:41;;;;;;;12.98;6.45;;;;;;;;;;4928936;29;20054;-69
2022/10/23 00:35:10;;;;;;;15.38;7.10;;;;;;;;;;4927830;29;20055;-70
2022/10/23 00:37:38;;;;;;;20.45;7.15;;;;;;;;;;4923695;28;20062;-69
2022/10/23 00:40:05;;;;;;;19.42;6.95;;;;;;;;;;4942608;29;20490;-69
2022/10/23 00:42:32;;;;;;;17.02;6.90;;;;;;;;;;4927690;29;20061;-69
2022/10/23 00:45:12;;;;;;;15.00;7.00;;;;;;;;;;4944389;29;20054;-69
2022/10/23 00:47:40;;;;;;;18.95;7.15;;;;;;;;;;4940550;29;20103;-69
2022/10/23 00:50:07;;;;;;;29.98;7.82;;;;;;;;;;4945648;29;20051;-69
2022/10/23 00:52:39;;;;;;;13.57;6.70;;;;;;;;;;4947018;28;20067;-70
2022/10/23 00:55:06;;;;;;;18.23;7.68;;;;;;;;;;4916379;29;20058;-70
2022/10/23 00:57:33;;;;;;;22.05;8.77;;;;;;;;;;4926286;29;20059;-69
2022/10/23 01:00:01;;;;;;;26.42;10.30;;;;;;;;;;4937239;29;20051;-69
2022/10/23 01:02:28;;;;;;;28.88;9.38;;;;;;;;;;4943525;29;20071;-69
2022/10/23 01:04:55;;;;;;;28.75;8.77;;;;;;;;;;4928234;29;20063;-69
2022/10/23 01:07:25;;;;;;;21.00;8.82;;;;;;;;;;4924564;29;20134;-69
2022/10/23 01:09:56;;;;;;;24.13;9.05;;;;;;;;;;4944629;29;20395;-69
2022/10/23 01:12:26;;;;;;;26.00;9.60;;;;;;;;;;4942899;29;20075;-69
2022/10/23 01:14:59;;;;;;;26.35;9.25;;;;;;;;;;4939545;29;20447;-69
2022/10/23 01:17:31;;;;;;;24.60;9.57;;;;;;;;;;4943214;28;20051;-69
2022/10/23 01:20:08;;;;;;;20.38;8.27;;;;;;;;;;4940077;29;20495;-69
2022/10/23 01:22:45;;;;;;;23.45;9.60;;;;;;;;;;4944229;29;20055;-69
2022/10/23 01:25:21;;;;;;;24.60;8.98;;;;;;;;;;4944027;29;20063;-69
2022/10/23 01:27:51;;;;;;;22.05;9.55;;;;;;;;;;4936714;29;20166;-69
2022/10/23 01:30:19;;;;;;;26.42;9.98;;;;;;;;;;4944269;29;20051;-69
2022/10/23 01:32:48;;;;;;;18.40;8.40;;;;;;;;;;4946586;29;20051;-70
2022/10/23 01:35:19;;;;;;;26.05;9.85;;;;;;;;;;4945089;29;20050;-69
2022/10/23 01:37:48;;;;;;;22.45;9.07;;;;;;;;;;4928482;28;20537;-69
2022/10/23 01:40:17;;;;;;;20.27;9.48;;;;;;;;;;4943527;29;20066;-70
2022/10/23 01:42:47;;;;;;;26.75;9.95;;;;;;;;;;4941700;29;20047;-70
2022/10/23 01:45:18;;;;;;;16.40;8.02;;;;;;;;;;4941741;28;20055;-69
2022/10/23 01:47:45;;;;;;;14.77;8.55;;;;;;;;;;4923155;29;20057;-70
2022/10/23 01:50:15;;;;;;;20.75;8.85;;;;;;;;;;4944395;29;20051;-69
2022/10/23 01:52:42;;;;;;;19.20;8.88;;;;;;;;;;4944525;28;20046;-69
2022/10/23 01:55:11;;;;;;;17.88;8.85;;;;;;;;;;4937578;29;20048;-70
2022/10/23 01:57:39;;;;;;;20.83;10.00;;;;;;;;;;4944387;29;20066;-69
2022/10/23 02:00:08;;;;;;;22.58;9.27;;;;;;;;;;4943928;29;20055;-69
2022/10/23 02:02:38;;;;;;;19.05;9.15;;;;;;;;;;4927029;29;20517;-69
2022/10/23 02:05:07;;;;;;;26.67;10.55;;;;;;;;;;4946901;29;20046;-70
2022/10/23 02:07:35;;;;;;;26.67;12.57;;;;;;;;;;4936345;29;20058;-69
2022/10/23 02:10:03;;;;;;;26.60;12.52;;;;;;;;;;4934647;28;20058;-69
2022/10/23 02:12:34;;;;;;;34.03;14.95;;;;;;;;;;4942645;29;20054;-70
2022/10/23 02:15:04;;;;;;;27.63;13.93;;;;;;;;;;4943617;29;20051;-69
2022/10/23 02:17:34;;;;;;;27.73;13.10;;;;;;;;;;4936440;29;20118;-69
2022/10/23 02:20:10;;;;;;;31.55;13.77;;;;;;;;;;4943254;29;20559;-70
2022/10/23 02:22:40;;;;;;;26.38;14.25;;;;;;;;;;4941860;29;20055;-70
2022/10/23 02:25:10;;;;;;;25.17;13.50;;;;;;;;;;4937972;29;20062;-70
2022/10/23 02:27:39;;;;;;;31.33;13.05;;;;;;;;;;4939404;29;20077;-69
2022/10/23 02:30:08;;;;;;;30.35;12.15;;;;;;;;;;4939102;29;20047;-69
2022/10/23 02:32:36;;;;;;;21.98;11.60;;;;;;;;;;4945126;29;20051;-69
2022/10/23 02:35:05;;;;;;;35.67;12.52;;;;;;;;;;4940210;29;20070;-69
2022/10/23 02:37:33;;;;;;;28.83;11.32;;;;;;;;;;4929424;29;20051;-69
2022/10/23 02:40:00;;;;;;;28.30;11.52;;;;;;;;;;4938785;29;20490;-69
2022/10/23 02:42:29;;;;;;;22.08;11.05;;;;;;;;;;4940271;29;20063;-69
2022/10/23 02:45:03;;;;;;;18.65;10.43;;;;;;;;;;4939662;28;20771;-69
2022/10/23 02:47:30;;;;;;;;;;;;;;;;;;4942483;29;20050;-70
2022/10/23 02:50:03;;;;;;;28.50;11.20;;;;;;;;;;4942794;29;19997;-69
2022/10/23 02:52:37;;;;;;;26.23;12.32;;;;;;;;;;4942323;28;20419;-69
2022/10/23 02:55:10;;;;;;;23.90;13.30;;;;;;;;;;4939598;29;20051;-69
2022/10/23 02:57:40;;;;;;;22.75;13.43;;;;;;;;;;4946217;29;20062;-69
2022/10/23 03:00:11;;;;;;;24.67;13.45;;;;;;;;;;4927495;29;20146;-69
2022/10/23 03:02:41;;;;;;;23.65;11.90;;;;;;;;;;4942433;28;20055;-70
2022/10/23 03:05:09;;;;;;;26.73;14.10;;;;;;;;;;4942594;28;20055;-70
2022/10/23 03:07:39;;;;;;;30.10;13.80;;;;;;;;;;4922908;28;20073;-69
2022/10/23 03:10:07;;;;;;;25.17;13.90;;;;;;;;;;4936448;29;20164;-70
2022/10/23 03:12:34;;;;;;;25.52;13.20;;;;;;;;;;4942760;29;20054;-69
2022/10/23 03:15:01;;;;;;;31.05;14.13;;;;;;;;;;4943356;29;20058;-70
2022/10/23 03:17:28;;;;;;;23.25;13.52;;;;;;;;;;4940409;29;20604;-69
2022/10/23 03:19:55;;;;;;;30.98;14.88;;;;;;;;;;4937271;29;20055;-70
2022/10/23 03:22:23;;;;;;;25.50;14.15;;;;;;;;;;4926016;29;20055;-70
2022/10/23 03:24:51;;;;;;;28.73;14.45;;;;;;;;;;4933861;28;20451;-70
2022/10/23 03:27:18;;;;;;;26.67;13.05;;;;;;;;;;4935468;29;20126;-69
2022/10/23 03:29:46;;;;;;;24.58;14.18;;;;;;;;;;4940768;29;20047;-70
2022/10/23 03:32:13;;;;;;;23.63;13.13;;;;;;;;;;4937082;29;20047;-69
2022/10/23 03:34:40;;;;;;;21.38;15.32;;;;;;;;;;4936557;29;20102;-69
2022/10/23 03:37:07;;;;;;;28.23;15.10;;;;;;;;;;4937894;29;20059;-70
2022/10/23 03:39:34;;;;;;;32.63;14.63;;;;;;;;;;4922244;29;20063;-69
2022/10/23 03:42:03;;;;;;;33.45;14.65;;;;;;;;;;4940711;29;20051;-69
2022/10/23 03:44:31;;;;;;;22.90;14.18;;;;;;;;;;4945899;29;20095;-70
2022/10/23 03:46:58;;;;;;;25.70;15.18;;;;;;;;;;4941906;29;20169;-70
2022/10/23 03:49:25;;;;;;;32.85;15.88;;;;;;;;;;4949410;29;20051;-69
2022/10/23 03:51:52;;;;;;;30.35;14.93;;;;;;;;;;4948876;29;20051;-69
2022/10/23 03:54:20;;;;;;;24.70;14.93;;;;;;;;;;4940433;29;20154;-69
2022/10/23 03:56:48;;;;;;;29.77;14.63;;;;;;;;;;4948604;29;20062;-70
2022/10/23 03:59:16;;;;;;;24.95;14.13;;;;;;;;;;4946998;28;20047;-69
2022/10/23 04:01:43;;;;;;;24.27;13.70;;;;;;;;;;4945875;29;20058;-70
2022/10/23 04:04:11;;;;;;;28.25;14.75;;;;;;;;;;4946478;28;20077;-70
2022/10/23 04:06:39;;;;;;;26.00;14.38;;;;;;;;;;4942650;29;20055;-70
2022/10/23 04:09:06;;;;;;;30.08;15.43;;;;;;;;;;4922770;29;20584;-70
2022/10/23 04:11:33;;;;;;;24.08;14.98;;;;;;;;;;4921919;29;20056;-70
2022/10/23 04:14:00;;;;;;;30.17;14.43;;;;;;;;;;4921424;29;20055;-70
2022/10/23 04:16:29;;;;;;;25.98;14.35;;;;;;;;;;4926888;29;20792;-70
2022/10/23 04:18:56;;;;;;;30.67;14.85;;;;;;;;;;4925790;29;20055;-69
2022/10/23 04:21:23;;;;;;;26.33;14.55;;;;;;;;;;4927092;29;20115;-69
2022/10/23 04:23:50;;;;;;;31.42;15.43;;;;;;;;;;4924860;29;20107;-69
2022/10/23 04:26:18;;;;;;;22.42;14.40;;;;;;;;;;4922877;29;20121;-70
2022/10/23 04:28:45;;;;;;;24.40;14.60;;;;;;;;;;4925668;29;20062;-69
2022/10/23 04:31:12;;;;;;;34.28;14.52;;;;;;;;;;4920403;29;20465;-69
2022/10/23 04:33:41;;;;;;;29.15;14.88;;;;;;;;;;4923091;29;20039;-68
2022/10/23 04:36:08;;;;;;;34.88;17.63;;;;;;;;;;4926634;29;20123;-68
2022/10/23 04:38:36;;;;;;;26.85;14.70;;;;;;;;;;4923187;29;20712;-68
2022/10/23 04:41:03;;;;;;;32.03;16.67;;;;;;;;;;4924687;29;20077;-68
2022/10/23 04:43:30;;;;;;;33.95;16.55;;;;;;;;;;4928700;29;20055;-68
2022/10/23 04:45:57;;;;;;;24.13;14.88;;;;;;;;;;4916255;29;20452;-68
2022/10/23 04:48:25;;;;;;;31.30;15.52;;;;;;;;;;4927043;29;20056;-68
2022/10/23 04:50:57;;;;;;;29.23;15.38;;;;;;;;;;4921323;29;20044;-68
2022/10/23 04:53:24;;;;;;;28.45;16.23;;;;;;;;;;4927455;29;20079;-68
2022/10/23 04:55:52;;;;;;;37.78;17.45;;;;;;;;;;4923946;29;20547;-68
2022/10/23 04:58:19;;;;;;;31.77;15.93;;;;;;;;;;4925631;29;20056;-69
2022/10/23 05:00:47;;;;;;;27.33;14.70;;;;;;;;;;4926918;29;20044;-68
2022/10/23 05:03:14;;;;;;;32.97;15.25;;;;;;;;;;4925912;29;20495;-68
2022/10/23 05:05:42;;;;;;;29.63;15.68;;;;;;;;;;4927576;29;20066;-64
2022/10/23 05:08:11;;;;;;;24.80;14.35;;;;;;;;;;4926582;29;20507;-65
2022/10/23 05:10:38;;;;;;;26.23;14.23;;;;;;;;;;4942432;29;20072;-67
2022/10/23 05:13:06;;;;;;;22.73;14.15;;;;;;;;;;4945589;29;20043;-66
2022/10/23 05:15:33;;;;;;;29.77;17.05;;;;;;;;;;4947727;29;20063;-64
2022/10/23 05:18:02;;;;;;;31.98;16.52;;;;;;;;;;4940336;29;20043;-68
2022/10/23 05:20:31;;;;;;;37.33;17.65;;;;;;;;;;4943106;29;20055;-65
2022/10/23 05:23:00;;;;;;;34.72;17.52;;;;;;;;;;4943469;29;20062;-65
2022/10/23 05:25:29;;;;;;;36.83;17.42;;;;;;;;;;4942606;28;20050;-69
2022/10/23 05:27:56;;;;;;;30.00;16.05;;;;;;;;;;4946667;29;20455;-64
2022/10/23 05:30:23;;;;;;;36.78;19.10;;;;;;;;;;4939291;29;20054;-66
2022/10/23 05:32:51;;;;;;;31.23;17.73;;;;;;;;;;4937837;29;20862;-65
2022/10/23 05:35:19;;;;;;;32.22;17.63;;;;;;;;;;4915485;29;20063;-65
2022/10/23 05:37:48;;;;;;;32.88;17.92;;;;;;;;;;4920419;29;20066;-65
2022/10/23 05:40:15;;;;;;;32.97;17.25;;;;;;;;;;4935529;29;20051;-64
2022/10/23 05:42:44;;;;;;;37.33;19.25;;;;;;;;;;4937977;29;20051;-70
2022/10/23 05:45:11;;;;;;;37.17;20.33;;;;;;;;;;4915040;29;20056;-66
2022/10/23 05:47:38;;;;;;;41.30;19.73;;;;;;;;;;4942962;29;20067;-64
2022/10/23 05:50:06;;;;;;;35.88;17.45;;;;;;;;;;4936856;29;20054;-64
2022/10/23 05:52:33;;;;;;;42.53;19.45;;;;;;;;;;4940272;29;20058;-66
2022/10/23 05:55:00;;;;;;;40.13;20.08;;;;;;;;;;4937924;29;20043;-68
2022/10/23 05:57:28;;;;;;;39.20;20.55;;;;;;;;;;4940223;29;20417;-67
2022/10/23 05:59:56;;;;;;;45.65;23.98;;;;;;;;;;4937804;29;20414;-65
2022/10/23 06:02:23;;;;;;;56.90;21.73;;;;;;;;;;4936489;28;20193;-65
2022/10/23 06:04:50;;;;;;;42.47;22.55;;;;;;;;;;4942095;28;20095;-68
2022/10/23 06:07:18;;;;;;;44.35;22.63;;;;;;;;;;4942862;29;20051;-66
2022/10/23 06:09:45;;;;;;;30.83;19.88;;;;;;;;;;4944344;29;20454;-66
2022/10/23 06:12:12;;;;;;;37.15;20.85;;;;;;;;;;4944681;29;20051;-64
2022/10/23 06:14:39;;;;;;;42.67;21.83;;;;;;;;;;4944010;29;20434;-65
2022/10/23 06:17:08;;;;;;;37.63;19.63;;;;;;;;;;4920969;29;20063;-66
2022/10/23 06:19:35;;;;;;;42.03;21.10;;;;;;;;;;4940650;29;20845;-65
2022/10/23 06:22:02;;;;;;;45.92;22.92;;;;;;;;;;4944757;29;20098;-68
2022/10/23 06:24:29;;;;;;;48.28;22.80;;;;;;;;;;4946003;29;20078;-65
2022/10/23 06:26:57;;;;;;;40.95;22.27;;;;;;;;;;4940924;29;20043;-65
2022/10/23 06:29:24;;;;;;;48.78;22.73;;;;;;;;;;4941024;29;20047;-65
2022/10/23 06:31:51;;;;;;;39.83;22.75;;;;;;;;;;4939131;29;20051;-69
2022/10/23 06:34:20;;;;;;;42.65;22.55;;;;;;;;;;4945237;29;20053;-66
2022/10/23 06:36:47;;;;;;;46.00;22.48;;;;;;;;;;4942302;29;20055;-65
2022/10/23 06:39:14;;;;;;;40.40;22.50;;;;;;;;;;4935371;29;20126;-66
2022/10/23 06:41:43;;;;;;;37.20;20.90;;;;;;;;;;4936570;29;20126;-66
2022/10/23 06:44:10;;;;;;;56.00;24.38;;;;;;;;;;4938673;29;20564;-64
2022/10/23 06:46:37;;;;;;;38.97;22.88;;;;;;;;;;4914710;29;20050;-67
2022/10/23 06:49:04;;;;;;;44.28;21.42;;;;;;;;;;4940448;29;20070;-66
2022/10/23 06:51:33;;;;;;;41.25;21.83;;;;;;;;;;4938909;29;20051;-65
2022/10/23 06:54:00;;;;;;;35.80;21.00;;;;;;;;;;4932960;29;20059;-67
2022/10/23 06:56:29;;;;;;;41.08;22.35;;;;;;;;;;4938233;29;20056;-67
2022/10/23 06:58:56;;;;;;;46.22;23.65;;;;;;;;;;4933093;29;20059;-66
2022/10/23 07:01:23;;;;;;;41.38;20.60;;;;;;;;;;4920574;29;20414;-65
2022/10/23 07:03:50;;;;;;;52.28;24.58;;;;;;;;;;4936870;28;20055;-65
2022/10/23 07:06:18;;;;;;;57.88;23.77;;;;;;;;;;4939548;29;20047;-66
2022/10/23 07:08:46;;;;;;;45.30;24.10;;;;;;;;;;4941295;29;20081;-68
2022/10/23 07:11:14;;;;;;;42.88;23.02;;;;;;;;;;4936030;29;20408;-66
2022/10/23 07:13:43;;;;;;;40.80;22.45;;;;;;;;;;4933986;29;20734;-66
2022/10/23 07:16:11;;;;;;;40.65;21.60;;;;;;;;;;4940508;29;20054;-67
2022/10/23 07:18:39;;;;;;;43.00;22.52;;;;;;;;;;4944209;29;20055;-67
2022/10/23 07:21:06;;;;;;;45.55;22.77;;;;;;;;;;4936922;29;20051;-66
2022/10/23 07:23:33;;;;;;;46.58;22.30;;;;;;;;;;4936385;29;20055;-67
2022/10/23 07:26:05;;;;;;;51.25;24.42;;;;;;;;;;4940734;29;20051;-67
2022/10/23 07:28:32;;;;;;;39.67;21.05;;;;;;;;;;4942774;29;20050;-67
2022/10/23 07:31:00;;;;;;;39.03;21.52;;;;;;;;;;4937917;29;20043;-67
2022/10/23 07:33:27;;;;;;;49.38;21.73;;;;;;;;;;4932214;29;20051;-67
2022/10/23 07:35:54;;;;;;;40.38;20.35;;;;;;;;;;4937989;29;20355;-67
2022/10/23 07:38:21;;;;;;;40.25;21.65;;;;;;;;;;4921050;29;20058;-68
2022/10/23 07:40:49;;;;;;;47.55;22.05;;;;;;;;;;4931889;29;20074;-67
2022/10/23 07:43:19;;;;;;;42.63;21.80;;;;;;;;;;4936416;29;20047;-67
2022/10/23 07:45:47;;;;;;;39.38;20.95;;;;;;;;;;4922734;29;20079;-66
2022/10/23 07:48:14;;;;;;;43.30;20.00;;;;;;;;;;4943757;29;20051;-67
2022/10/23 07:50:42;;;;;;;40.85;20.45;;;;;;;;;;4942950;29;20051;-68
2022/10/23 07:53:11;;;;;;;42.17;21.80;;;;;;;;;;4941404;29;20106;-67
2022/10/23 07:55:38;;;;;;;39.13;20.00;;;;;;;;;;4939022;29;20051;-66
2022/10/23 07:58:06;;;;;;;36.60;19.75;;;;;;;;;;4939505;29;20051;-66
2022/10/23 08:00:34;;;;;;;38.28;19.70;;;;;;;;;;4944522;29;20702;-66
2022/10/23 08:03:01;;;;;;;44.38;21.70;;;;;;;;;;4929087;28;20052;-66
2022/10/23 08:05:29;;;;;;;44.08;19.98;;;;;;;;;;4942895;29;20066;-69
2022/10/23 08:07:56;;;;;;;40.08;20.63;;;;;;;;;;4942561;29;20051;-66
2022/10/23 08:10:23;;;;;;;39.40;19.35;;;;;;;;;;4942061;29;20059;-68
2022/10/23 08:12:50;;;;;;;41.38;21.58;;;;;;;;;;4941487;29;20055;-67
2022/10/23 08:15:18;;;;;;;35.75;20.13;;;;;;;;;;4941013;29;20672;-67
2022/10/23 08:17:46;;;;;;;29.77;17.70;;;;;;;;;;4941003;29;20055;-69
2022/10/23 08:20:13;;;;;;;42.60;19.27;;;;;;;;;;4942904;29;20056;-68
2022/10/23 08:22:41;;;;;;;41.22;19.75;;;;;;;;;;4941045;29;20070;-68
2022/10/23 08:25:08;;;;;;;39.80;19.23;;;;;;;;;;4943939;29;20059;-67
2022/10/23 08:27:35;;;;;;;34.60;18.63;;;;;;;;;;4944854;28;20651;-66
2022/10/23 08:30:03;;;;;;;34.33;16.38;;;;;;;;;;4943830;29;20051;-69
2022/10/23 08:32:30;;;;;;;37.03;17.00;;;;;;;;;;4943592;29;20733;-67
2022/10/23 08:34:58;;;;;;;33.45;16.58;;;;;;;;;;4945041;29;20122;-67
2022/10/23 08:37:26;;;;;;;34.75;16.45;;;;;;;;;;4943269;29;20051;-70
2022/10/23 08:39:53;;;;;;;35.55;18.65;;;;;;;;;;4944582;29;20056;-66
2022/10/23 08:42:22;;;;;;;45.80;18.23;;;;;;;;;;4945120;29;20066;-68
2022/10/23 08:44:53;;;;;;;33.20;17.05;;;;;;;;;;4944434;29;20105;-69
2022/10/23 08:47:23;;;;;;;34.88;17.00;;;;;;;;;;4929541;29;20059;-68
2022/10/23 08:49:52;;;;;;;33.67;16.35;;;;;;;;;;4947641;29;20055;-68
2022/10/23 08:52:24;;;;;;;33.90;15.88;;;;;;;;;;4944929;29;20462;-67
2022/10/23 08:54:57;;;;;;;30.88;16.08;;;;;;;;;;4943832;29;20110;-68
2022/10/23 08:57:31;;;;;;;32.30;15.82;;;;;;;;;;4945350;29;20051;-67
2022/10/23 09:00:00;;;;;;;29.55;15.80;;;;;;;;;;4946825;29;20542;-67
2022/10/23 09:02:29;;;;;;;30.38;15.65;;;;;;;;;;4945484;29;20055;-68
2022/10/23 09:04:58;;;;;;;32.35;15.00;;;;;;;;;;4941342;28;20039;-68
2022/10/23 09:07:34;;;;;;;24.60;14.07;;;;;;;;;;4943589;29;20715;-68
2022/10/23 09:10:08;;;;;;;26.38;13.70;;;;;;;;;;4943729;29;20058;-67
2022/10/23 09:12:35;;;;;;;24.58;13.95;;;;;;;;;;4947023;29;20061;-68
2022/10/23 09:15:20;;;;;;;27.33;14.43;;;;;;;;;;4945878;29;20058;-68
2022/10/23 09:17:49;;;;;;;25.95;12.75;;;;;;;;;;4944311;29;20043;-67
2022/10/23 09:20:20;;;;;;;30.92;13.98;;;;;;;;;;4945740;29;20070;-67
2022/10/23 09:22:49;;;;;;;26.60;14.10;;;;;;;;;;4945546;29;20449;-68
2022/10/23 09:25:19;;;;;;;24.08;12.68;;;;;;;;;;4943795;29;20119;-69
2022/10/23 09:27:47;;;;;;;29.05;12.65;;;;;;;;;;4942341;29;20122;-68
2022/10/23 09:30:25;;;;;;;19.58;11.73;;;;;;;;;;4942036;29;20134;-67
2022/10/23 09:32:52;;;;;;;24.98;11.57;;;;;;;;;;4943779;29;20051;-67
2022/10/23 09:35:22;;;;;;;22.35;11.80;;;;;;;;;;4945937;29;20054;-67
2022/10/23 09:37:52;;;;;;;22.58;12.55;;;;;;;;;;4930669;29;20055;-68
2022/10/23 09:40:22;;;;;;;22.67;11.50;;;;;;;;;;4943196;29;20590;-67
2022/10/23 09:42:51;;;;;;;23.60;11.88;;;;;;;;;;4944541;29;20051;-67
2022/10/23 09:45:22;;;;;;;18.15;10.80;;;;;;;;;;4942766;29;20154;-67
2022/10/23 09:47:50;;;;;;;27.70;10.38;;;;;;;;;;4933210;29;20051;-67
2022/10/23 09:50:21;;;;;;;22.35;11.02;;;;;;;;;;4944897;29;20048;-68
2022/10/23 09:52:57;;;;;;;19.52;10.43;;;;;;;;;;4943648;29;20612;-69
2022/10/23 09:55:26;;;;;;;18.90;9.82;;;;;;;;;;4945896;29;20051;-68
2022/10/23 09:57:54;;;;;;;18.25;10.32;;;;;;;;;;4944195;29;20047;-67
2022/10/23 10:00:22;;;;;;;18.83;10.05;;;;;;;;;;4945908;29;20043;-69
2022/10/23 10:02:57;;;;;;;16.83;9.60;;;;;;;;;;4946167;28;20047;-66
2022/10/23 10:05:25;;;;;;;16.13;10.07;;;;;;;;;;4944651;29;20513;-67
2022/10/23 10:07:56;;;;;;;22.98;9.93;;;;;;;;;;4945898;29;20047;-67
2022/10/23 10:10:25;;;;;;;17.05;9.60;;;;;;;;;;4942265;29;20086;-67
2022/10/23 10:12:56;;;;;;;18.13;9.95;;;;;;;;;;4946503;29;20514;-67
2022/10/23 10:15:27;;;;;;;16.45;9.10;;;;;;;;;;4944058;29;20562;-66
2022/10/23 10:18:00;;;;;;;20.02;9.88;;;;;;;;;;4946585;29;20465;-67
2022/10/23 10:20:38;;;;;;;16.47;8.80;;;;;;;;;;4945338;29;20098;-67
2022/10/23 10:23:08;;;;;;;17.73;9.00;;;;;;;;;;4937124;29;20051;-69
2022/10/23 10:25:38;;;;;;;18.27;8.52;;;;;;;;;;4944626;29;20059;-69
2022/10/23 10:28:18;;;;;;;15.60;8.55;;;;;;;;;;4945001;29;20054;-67
2022/10/23 10:30:49;;;;;;;19.25;8.40;;;;;;;;;;4944134;29;20051;-67
2022/10/23 10:33:18;;;;;;;17.85;8.07;;;;;;;;;;4943877;29;20061;-68
2022/10/23 10:35:52;;;;;;;14.15;8.05;;;;;;;;;;4944691;29;20047;-68
2022/10/23 10:38:19;;;;;;;;;;;;;;;;;;4943471;29;20050;-68
2022/10/23 10:40:52;;;;;;;15.95;7.43;;;;;;;;;;4946071;29;19927;-70
2022/10/23 10:43:27;;;;;;;17.33;7.70;;;;;;;;;;4941982;29;20055;-67
2022/10/23 10:45:58;;;;;;;15.25;7.80;;;;;;;;;;4944922;29;20541;-67
2022/10/23 10:48:35;;;;;;;16.85;7.20;;;;;;;;;;4928718;29;20051;-67
2022/10/23 10:51:04;;;;;;;15.73;6.72;;;;;;;;;;4945272;29;20151;-68
2022/10/23 10:53:34;;;;;;;16.33;7.03;;;;;;;;;;4945067;29;20058;-67
2022/10/23 10:56:04;;;;;;;17.52;6.95;;;;;;;;;;4939865;29;20058;-68
2022/10/23 10:58:36;;;;;;;13.13;6.53;;;;;;;;;;4944781;29;20066;-67
2022/10/23 11:01:09;;;;;;;11.20;6.63;;;;;;;;;;4943032;29;20134;-67
2022/10/23 11:03:39;;;;;;;13.32;6.53;;;;;;;;;;4942365;28;20422;-70
2022/10/23 11:06:12;;;;;;;14.80;6.47;;;;;;;;;;4944756;29;20058;-68
2022/10/23 11:08:40;;;;;;;11.27;6.40;;;;;;;;;;4946111;29;20055;-68
2022/10/23 11:11:12;;;;;;;12.70;6.22;;;;;;;;;;4941309;29;20494;-67
2022/10/23 11:13:40;;;;;;;12.70;6.90;;;;;;;;;;4931272;29;20058;-67
2022/10/23 11:16:10;;;;;;;12.85;5.97;;;;;;;;;;4925817;29;20063;-68
2022/10/23 11:18:38;;;;;;;14.57;6.65;;;;;;;;;;4942907;29;20058;-67
2022/10/23 11:21:09;;;;;;;13.25;6.50;;;;;;;;;;4944923;29;20070;-68
2022/10/23 11:23:58;;;;;;;14.30;6.75;;;;;;;;;;4944488;29;20055;-67
2022/10/23 11:26:36;;;;;;;11.45;6.05;;;;;;;;;;4944374;29;20600;-67
2022/10/23 11:29:15;;;;;;;13.90;6.18;;;;;;;;;;4944179;29;20051;-67
2022/10/23 11:31:46;;;;;;;19.13;9.10;;;;;;;;;;4941325;29;20055;-69
2022/10/23 11:34:37;;;;;;;11.82;5.25;;;;;;;;;;4942666;29;20058;-67
2022/10/23 11:37:04;;;;;;;12.60;4.70;;;;;;;;;;4941725;29;20051;-68
2022/10/23 11:39:32;;;;;;;10.10;4.63;;;;;;;;;;4929052;29;20500;-68
2022/10/23 11:42:13;;;;;;;8.00;4.15;;;;;;;;;;4944691;29;20050;-67
2022/10/23 11:44:42;;;;;;;11.68;4.47;;;;;;;;;;4945130;29;20457;-69
2022/10/23 11:47:28;;;;;;;10.73;4.00;;;;;;;;;;4928759;29;20161;-67
2022/10/23 11:50:05;;;;;;;12.48;4.40;;;;;;;;;;4942031;29;20058;-68
2022/10/23 11:52:33;;;;;;;11.15;3.53;;;;;;;;;;4925624;29;20406;-68
2022/10/23 11:55:04;;;;;;;13.85;4.03;;;;;;;;;;4941362;29;20062;-68
2022/10/23 11:57:33;;;;;;;12.95;4.38;;;;;;;;;;4944127;29;20495;-69
2022/10/23 12:00:00;;;;;;;9.48;3.78;;;;;;;;;;4941912;29;20058;-70
2022/10/23 12:02:32;;;;;;;9.90;3.80;;;;;;;;;;4941946;28;20051;-67
2022/10/23 12:05:02;;;;;;;10.55;3.25;;;;;;;;;;4947102;28;20046;-69
2022/10/23 12:07:31;;;;;;;13.02;3.80;;;;;;;;;;4945552;29;20490;-67
2022/10/23 12:10:00;;;;;;;18.08;3.33;;;;;;;;;;4947409;29;20062;-69
2022/10/23 12:12:29;;;;;;;9.07;3.03;;;;;;;;;;4948293;29;20560;-66
2022/10/23 12:15:08;;;;;;;9.18;3.40;;;;;;;;;;4948268;29;20509;-67
2022/10/23 12:17:36;;;;;;;7.95;3.10;;;;;;;;;;4945671;29;20047;-68
2022/10/23 12:20:37;;;;;;;10.65;3.03;;;;;;;;;;4945971;29;20055;-67
2022/10/23 12:23:16;;;;;;;10.50;2.80;;;;;;;;;;4867217;29;20053;-70
2022/10/23 12:25:49;;;;;;;9.65;3.17;;;;;;;;;;4870238;29;20058;-69
2022/10/23 12:28:23;;;;;;;8.10;3.00;;;;;;;;;;4917179;29;20051;-68
2022/10/23 12:30:58;;;;;;;7.75;3.28;;;;;;;;;;4941703;29;20051;-68
2022/10/23 12:33:27;;;;;;;15.73;3.45;;;;;;;;;;4943635;29;20055;-67
2022/10/23 12:36:06;;;;;;;11.73;3.08;;;;;;;;;;4948035;29;20051;-67
2022/10/23 12:38:34;;;;;;;14.30;3.03;;;;;;;;;;4947034;29;20071;-68
2022/10/23 12:41:03;;;;;;;8.20;2.45;;;;;;;;;;4941474;29;20106;-68
2022/10/23 12:43:31;;;;;;;8.15;3.15;;;;;;;;;;4945891;29;20111;-69
2022/10/23 12:46:03;;;;;;;8.45;2.78;;;;;;;;;;4946465;29;20047;-68
2022/10/23 12:48:30;;;;;;;8.13;2.63;;;;;;;;;;4942087;29;20660;-69
2022/10/23 12:50:57;;;;;;;4.88;2.42;;;;;;;;;;4947249;29;20051;-67
2022/10/23 12:53:24;;;;;;;8.20;2.70;;;;;;;;;;4946789;29;20082;-67
2022/10/23 12:55:53;;;;;;;10.45;2.83;;;;;;;;;;4947033;29;20051;-68
2022/10/23 12:58:21;;;;;;;10.50;3.20;;;;;;;;;;4947005;29;20063;-66
2022/10/23 13:00:52;;;;;;;10.95;2.58;;;;;;;;;;4947261;29;20077;-67
2022/10/23 13:03:21;;;;;;;7.30;2.70;;;;;;;;;;4946933;28;20058;-67
2022/10/23 13:05:49;;;;;;;8.57;3.10;;;;;;;;;;4947049;29;20134;-68
2022/10/23 13:08:17;;;;;;;8.00;2.50;;;;;;;;;;4946298;29;20059;-68
2022/10/23 13:10:44;;;;;;;11.30;2.97;;;;;;;;;;4930455;29;20067;-67
2022/10/23 13:13:12;;;;;;;8.43;2.75;;;;;;;;;;4946938;28;20051;-67
2022/10/23 13:15:40;;;;;;;9.73;3.08;;;;;;;;;;4946080;29;20055;-68
2022/10/23 13:18:08;;;;;;;9.52;2.85;;;;;;;;;;4947300;29;20788;-67
2022/10/23 13:20:38;;;;;;;6.45;2.67;;;;;;;;;;4944492;29;20055;-69
2022/10/23 13:23:17;;;;;;;7.18;2.83;;;;;;;;;;4947088;29;20055;-69
2022/10/23 13:25:53;;;;;;;9.68;3.03;;;;;;;;;;4947014;29;20430;-68
2022/10/23 13:28:22;;;;;;;10.68;2.67;;;;;;;;;;4932335;29;20051;-68
2022/10/23 13:31:16;;;;;;;10.90;3.00;;;;;;;;;;4941058;29;20059;-68
2022/10/23 13:33:44;;;;;;;11.13;3.80;;;;;;;;;;4899865;29;20047;-68
2022/10/23 13:36:22;;;;;;;10.88;4.22;;;;;;;;;;4929459;29;20055;-68
2022/10/23 13:39:00;;;;;;;6.85;3.38;;;;;;;;;;4946407;29;20047;-67
2022/10/23 13:41:28;;;;;;;9.10;3.63;;;;;;;;;;4949419;28;20446;-67
2022/10/23 13:43:55;;;;;;;8.60;3.05;;;;;;;;;;4933180;29;20525;-69
2022/10/23 13:46:24;;;;;;;11.05;3.05;;;;;;;;;;4945791;29;20051;-68
2022/10/23 13:48:51;;;;;;;7.75;2.72;;;;;;;;;;4947360;29;20146;-68
2022/10/23 13:51:20;;;;;;;9.38;2.95;;;;;;;;;;4945506;29;20071;-68
2022/10/23 13:53:49;;;;;;;7.93;2.83;;;;;;;;;;4946855;29;20541;-69
2022/10/23 13:56:18;;;;;;;8.15;2.83;;;;;;;;;;4924752;29;20056;-66
2022/10/23 13:58:45;;;;;;;9.18;3.38;;;;;;;;;;4944830;29;20051;-66
2022/10/23 14:01:16;;;;;;;9.23;2.90;;;;;;;;;;4940180;29;20051;-69
2022/10/23 14:03:44;;;;;;;7.20;2.20;;;;;;;;;;4946700;28;20043;-66
2022/10/23 14:06:11;;;;;;;9.10;2.83;;;;;;;;;;4945487;29;20055;-66
2022/10/23 14:08:38;;;;;;;9.05;3.00;;;;;;;;;;4947459;29;20055;-67
2022/10/23 14:11:07;;;;;;;6.05;2.40;;;;;;;;;;4945215;29;20062;-67
2022/10/23 14:13:34;;;;;;;6.75;2.47;;;;;;;;;;4943595;29;20154;-66
2022/10/23 14:16:01;;;;;;;8.98;2.50;;;;;;;;;;4925690;29;20055;-67
2022/10/23 14:18:29;;;;;;;5.57;2.60;;;;;;;;;;4946080;29;20063;-66
2022/10/23 14:20:56;;;;;;;12.82;3.65;;;;;;;;;;4944548;29;20486;-67
2022/10/23 14:23:23;;;;;;;11.73;2.92;;;;;;;;;;4945103;28;20060;-67
2022/10/23 14:25:50;;;;;;;13.50;3.42;;;;;;;;;;4944706;29;20082;-68
2022/10/23 14:28:19;;;;;;;6.07;2.60;;;;;;;;;;4929445;29;20063;-69
2022/10/23 14:30:46;;;;;;;10.27;3.58;;;;;;;;;;4943794;29;20058;-66
2022/10/23 14:33:13;;;;;;;10.18;2.90;;;;;;;;;;4943115;29;20047;-66
2022/10/23 14:35:42;;;;;;;11.02;2.75;;;;;;;;;;4938487;29;20085;-66
2022/10/23 14:38:09;;;;;;;5.35;2.45;;;;;;;;;;4941125;29;20052;-68